Time;durP1;ratioP1;P1;durP2;ratioP2;P2;SDS_P1;SDS_P2;PMS_P1;PMS_P2;Temp;Humidity;BMP_temperature;BMP_pressure;BME280_temperature;BME280_humidity;BME280_pressure;Samples;Min_cycle;Max_cycle;Signal;HPM_P1;HPM_P2
2022/10/12 00:05:32;;;;;;;20.87;17.70;;;;;16.20;99524.00;;;;16516679;28;20747;-48
2022/10/12 00:13:34;;;;;;;20.50;17.50;;;;;15.60;99538.00;;;;16514800;28;20623;-48
2022/10/12 00:21:40;;;;;;;22.50;18.50;;;;;15.90;99526.00;;;;16513432;28;20223;-49
2022/10/12 00:29:42;;;;;;;19.67;17.63;;;;;15.40;99527.00;;;;16504295;28;20224;-49
2022/10/12 00:37:46;;;;;;;19.70;17.57;;;;;15.10;99524.00;;;;16510859;28;20252;-48
2022/10/12 00:45:48;;;;;;;23.70;18.77;;;;;15.00;99522.00;;;;16501769;28;20212;-48
2022/10/12 00:53:56;;;;;;;23.70;19.60;;;;;14.70;99526.00;;;;16511787;28;20745;-49
2022/10/12 01:01:58;;;;;;;31.03;19.03;;;;;14.70;99516.00;;;;16513864;28;20608;-49
2022/10/12 01:10:04;;;;;;;20.10;18.00;;;;;14.40;99529.00;;;;16506490;28;20364;-49
2022/10/12 01:18:12;;;;;;;33.37;21.60;;;;;14.70;99524.00;;;;16504298;28;20594;-48
2022/10/12 01:26:35;;;;;;;22.83;20.13;;;;;14.40;99524.00;;;;16508831;28;20204;-49
2022/10/12 01:34:43;;;;;;;20.63;18.43;;;;;14.30;99522.00;;;;16509302;28;20317;-49
2022/10/12 01:42:46;;;;;;;24.70;19.70;;;;;14.40;99515.00;;;;16509197;28;20216;-49
2022/10/12 01:50:52;;;;;;;22.57;19.10;;;;;14.20;99515.00;;;;16498685;28;20713;-49
2022/10/12 01:58:59;;;;;;;28.27;20.00;;;;;14.30;99513.00;;;;16497653;28;20219;-49
2022/10/12 02:07:08;;;;;;;22.83;18.90;;;;;14.20;99518.00;;;;16522575;28;20715;-48
2022/10/12 02:15:12;;;;;;;26.13;21.20;;;;;13.90;99516.00;;;;16519633;28;20598;-48
2022/10/12 02:23:18;;;;;;;27.47;21.53;;;;;13.80;99508.00;;;;16515727;28;20223;-48
2022/10/12 02:31:27;;;;;;;23.60;19.87;;;;;13.70;99508.00;;;;16518645;28;20856;-48
2022/10/12 02:39:33;;;;;;;26.77;20.90;;;;;13.60;99498.00;;;;16516774;28;20608;-49
2022/10/12 02:47:36;;;;;;;30.73;20.13;;;;;13.30;99501.00;;;;16513274;28;20203;-48
2022/10/12 02:55:48;;;;;;;30.37;21.90;;;;;13.20;99509.00;;;;16506439;28;20643;-49
2022/10/12 03:03:50;;;;;;;27.07;22.67;;;;;13.20;99507.00;;;;16518894;28;20317;-47
2022/10/12 03:11:54;;;;;;;32.23;22.13;;;;;13.30;99499.00;;;;16518746;28;20838;-49
2022/10/12 03:19:57;;;;;;;29.07;20.80;;;;;13.30;99513.00;;;;16511841;28;20574;-49
2022/10/12 03:28:00;;;;;;;26.60;21.20;;;;;13.30;99517.00;;;;16511259;28;20683;-48
2022/10/12 03:36:03;;;;;;;28.53;21.67;;;;;13.40;99520.00;;;;16511492;28;20231;-49
2022/10/12 03:44:07;;;;;;;28.07;21.50;;;;;13.70;99520.00;;;;16514981;28;20218;-49
2022/10/12 03:52:10;;;;;;;23.33;20.10;;;;;14.00;99520.00;;;;16511114;28;20219;-49
2022/10/12 04:00:15;;;;;;;23.63;20.47;;;;;13.90;99516.00;;;;16506386;28;20234;-49
2022/10/12 04:08:17;;;;;;;25.27;22.60;;;;;14.90;99495.00;;;;16507891;28;20199;-49
2022/10/12 04:16:21;;;;;;;29.30;21.47;;;;;14.60;99505.00;;;;16511845;28;20266;-49
2022/10/12 04:24:23;;;;;;;24.93;20.50;;;;;14.40;99509.00;;;;16509673;28;20271;-48
2022/10/12 04:32:27;;;;;;;22.20;19.43;;;;;14.60;99508.00;;;;16509443;28;20223;-49
2022/10/12 04:40:29;;;;;;;23.13;20.43;;;;;14.30;99516.00;;;;16511965;28;20219;-50
2022/10/12 04:48:33;;;;;;;24.03;18.07;;;;;14.30;99512.00;;;;16505668;28;20186;-50
2022/10/12 04:56:35;;;;;;;25.63;20.00;;;;;14.30;99515.00;;;;16503775;28;20856;-50
2022/10/12 05:04:39;;;;;;;20.97;18.87;;;;;14.30;99521.00;;;;16506070;28;20249;-49
2022/10/12 05:12:42;;;;;;;24.13;20.80;;;;;14.40;99517.00;;;;16506208;28;20231;-49
2022/10/12 05:20:46;;;;;;;22.90;20.17;;;;;14.80;99512.00;;;;16509532;28;20235;-49
2022/10/12 05:28:48;;;;;;;25.90;19.30;;;;;14.60;99516.00;;;;16504184;28;20257;-49
2022/10/12 05:36:52;;;;;;;28.47;20.67;;;;;14.80;99520.00;;;;16510786;28;20233;-49
2022/10/12 05:44:54;;;;;;;22.30;19.70;;;;;14.80;99511.00;;;;16518447;23;20246;-47
2022/10/12 05:52:58;;;;;;;24.07;21.60;;;;;15.80;99511.00;;;;16476626;28;20230;-48
2022/10/12 06:01:05;;;;;;;23.10;20.13;;;;;15.40;99524.00;;;;16461720;28;20748;-48
2022/10/12 06:09:11;;;;;;;23.27;19.80;;;;;14.90;99521.00;;;;16463184;28;20220;-48
2022/10/12 06:17:13;;;;;;;24.90;21.90;;;;;15.10;99523.00;;;;16478206;28;20239;-48
2022/10/12 06:25:17;;;;;;;27.10;20.07;;;;;15.60;99520.00;;;;16478562;28;20225;-48
2022/10/12 06:33:19;;;;;;;24.70;20.40;;;;;15.40;99530.00;;;;16473338;28;20231;-47
2022/10/12 06:41:23;;;;;;;36.10;25.90;;;;;16.10;99531.00;;;;16461129;28;20205;-48
2022/10/12 06:49:26;;;;;;;36.03;29.10;;;;;16.10;99529.00;;;;16470917;28;20228;-48
2022/10/12 06:57:29;;;;;;;36.10;25.13;;;;;16.30;99530.00;;;;16456129;28;20307;-48
2022/10/12 07:05:32;;;;;;;28.00;24.30;;;;;16.80;99529.00;;;;16437616;28;20216;-48
2022/10/12 07:13:36;;;;;;;30.70;25.40;;;;;16.90;99530.00;;;;16418796;28;20229;-48
2022/10/12 07:21:38;;;;;;;31.33;24.73;;;;;17.00;99529.00;;;;16422204;28;21234;-47
2022/10/12 07:29:42;;;;;;;29.20;25.47;;;;;17.00;99527.00;;;;16417329;28;20689;-48
2022/10/12 07:37:44;;;;;;;33.87;26.53;;;;;17.20;99536.00;;;;16410873;28;20279;-48
2022/10/12 07:45:48;;;;;;;31.00;25.60;;;;;17.30;99518.00;;;;16412401;28;20240;-48
2022/10/12 07:53:51;;;;;;;28.70;25.43;;;;;17.30;99524.00;;;;16413291;28;20221;-47
2022/10/12 08:01:54;;;;;;;38.37;28.23;;;;;17.40;99516.00;;;;16417101;28;20550;-48
2022/10/12 08:09:57;;;;;;;30.23;27.13;;;;;17.50;99522.00;;;;16410528;28;20224;-48
2022/10/12 08:18:00;;;;;;;28.73;25.70;;;;;17.70;99528.00;;;;16409670;28;20229;-48
2022/10/12 08:26:03;;;;;;;31.07;26.00;;;;;18.20;99527.00;;;;16410447;28;20227;-47
2022/10/12 08:34:07;;;;;;;26.77;23.70;;;;;18.30;99540.00;;;;16409975;28;20609;-48
2022/10/12 08:42:16;;;;;;;28.00;25.00;;;;;18.50;99543.00;;;;16416046;28;20263;-48
2022/10/12 08:50:24;;;;;;;27.70;24.97;;;;;19.00;99529.00;;;;16406817;28;20212;-48
2022/10/12 08:58:31;;;;;;;25.67;23.00;;;;;19.30;99514.00;;;;16410628;28;20232;-48
2022/10/12 09:06:38;;;;;;;25.53;20.97;;;;;19.10;99518.00;;;;16407302;28;20392;-48
2022/10/12 09:14:42;;;;;;;28.83;25.80;;;;;19.20;99518.00;;;;16415383;28;20693;-48
2022/10/12 09:22:49;;;;;;;22.10;18.80;;;;;19.20;99512.00;;;;16426804;28;20223;-48
2022/10/12 09:31:06;;;;;;;20.73;18.73;;;;;19.40;99521.00;;;;16422947;28;20227;-48
2022/10/12 09:39:15;;;;;;;36.90;22.00;;;;;19.40;99528.00;;;;16460098;28;20602;-47
2022/10/12 09:47:29;;;;;;;19.53;17.50;;;;;19.40;99533.00;;;;16448184;28;20881;-48
2022/10/12 09:55:32;;;;;;;23.30;16.67;;;;;19.60;99524.00;;;;16465327;28;20232;-48
2022/10/12 10:03:35;;;;;;;20.23;17.97;;;;;19.50;99522.00;;;;16461787;28;20216;-48
2022/10/12 10:11:39;;;;;;;16.80;14.30;;;;;19.60;99525.00;;;;16467592;28;20224;-48
2022/10/12 10:19:41;;;;;;;16.27;14.17;;;;;19.80;99526.00;;;;16482443;28;20240;-48
2022/10/12 10:27:45;;;;;;;16.50;12.97;;;;;20.20;99527.00;;;;16477592;28;20229;-48
2022/10/12 10:35:57;;;;;;;15.00;12.97;;;;;20.20;99516.00;;;;16465711;28;20228;-48
2022/10/12 10:44:01;;;;;;;14.73;13.00;;;;;20.40;99525.00;;;;16452733;28;20256;-48
2022/10/12 10:52:05;;;;;;;14.43;12.40;;;;;20.50;99518.00;;;;16468940;28;20234;-47
2022/10/12 11:00:14;;;;;;;15.33;11.70;;;;;21.10;99516.00;;;;16462646;28;20246;-48
2022/10/12 11:08:20;;;;;;;13.33;11.03;;;;;20.70;99518.00;;;;16471915;28;20260;-48
2022/10/12 11:16:29;;;;;;;16.47;11.37;;;;;20.50;99507.00;;;;16469781;28;20286;-48
2022/10/12 11:24:35;;;;;;;15.17;11.53;;;;;20.70;99503.00;;;;16454363;28;20212;-48
2022/10/12 11:32:41;;;;;;;12.87;11.67;;;;;20.50;99511.00;;;;16452683;28;20239;-48
2022/10/12 11:40:48;;;;;;;12.30;11.00;;;;;20.00;99506.00;;;;16453503;28;20230;-48
2022/10/12 11:48:54;;;;;;;12.00;10.27;;;;;20.50;99497.00;;;;16442336;28;20232;-48
2022/10/12 11:57:00;;;;;;;11.53;9.63;;;;;20.50;99482.00;;;;16446770;28;20231;-48
2022/10/12 12:05:05;;;;;;;9.93;8.90;;;;;20.50;99484.00;;;;16459439;28;20220;-48
2022/10/12 12:13:18;;;;;;;12.63;9.57;;;;;20.10;99482.00;;;;16448602;28;20226;-48
2022/10/12 12:21:21;;;;;;;9.70;8.27;;;;;20.30;99479.00;;;;16441407;28;20217;-48
2022/10/12 12:29:27;;;;;;;12.63;9.00;;;;;20.50;99469.00;;;;16446343;28;20902;-48
2022/10/12 12:37:32;;;;;;;15.23;10.37;;;;;20.20;99469.00;;;;16451869;28;20236;-47
2022/10/12 12:45:52;;;;;;;10.10;8.70;;;;;21.00;99458.00;;;;16459747;28;20257;-48
2022/10/12 12:54:01;;;;;;;15.30;8.70;;;;;22.00;99444.00;;;;16461373;28;20225;-48
2022/10/12 13:02:23;;;;;;;7.47;6.40;;;;;21.30;99449.00;;;;16471559;28;20207;-49
2022/10/12 13:10:35;;;;;;;9.47;8.23;;;;;21.30;99455.00;;;;16470260;28;20204;-48
2022/10/12 13:18:48;;;;;;;12.33;7.23;;;;;22.30;99440.00;;;;16474282;28;20234;-48
2022/10/12 13:26:54;;;;;;;8.03;7.27;;;;;22.50;99430.00;;;;16466990;28;20589;-48
2022/10/12 13:35:03;;;;;;;8.43;7.47;;;;;22.60;99420.00;;;;16483755;28;20914;-48
2022/10/12 13:43:27;;;;;;;10.33;8.80;;;;;21.70;99420.00;;;;16480120;28;20734;-48
2022/10/12 13:51:31;;;;;;;8.87;7.97;;;;;22.80;99415.00;;;;16471201;28;20394;-49
2022/10/12 13:59:37;;;;;;;7.90;6.30;;;;;22.80;99408.00;;;;16458412;28;20360;-48
2022/10/12 14:07:40;;;;;;;6.97;6.20;;;;;23.20;99409.00;;;;16459798;28;20212;-48
2022/10/12 14:15:44;;;;;;;12.53;7.70;;;;;23.40;99403.00;;;;16460698;28;20233;-48
2022/10/12 14:23:48;;;;;;;12.27;7.03;;;;;23.20;99398.00;;;;16462405;28;20212;-48
2022/10/12 14:31:53;;;;;;;7.53;6.40;;;;;23.40;99391.00;;;;16483723;28;20865;-48
2022/10/12 14:39:59;;;;;;;7.83;7.00;;;;;23.00;99396.00;;;;16471318;28;20240;-48
2022/10/12 14:48:05;;;;;;;10.93;7.20;;;;;23.60;99397.00;;;;16462181;28;20236;-48
2022/10/12 14:56:09;;;;;;;10.97;6.97;;;;;24.30;99389.00;;;;16474235;28;20255;-48
2022/10/12 15:04:14;;;;;;;10.03;7.63;;;;;25.30;99371.00;;;;16477018;28;20298;-48
2022/10/12 15:12:18;;;;;;;9.87;6.90;;;;;24.00;99377.00;;;;16465054;28;20213;-47
2022/10/12 15:20:22;;;;;;;9.70;6.97;;;;;23.60;99376.00;;;;16453704;28;20220;-49
2022/10/12 15:28:26;;;;;;;10.47;7.23;;;;;24.60;99370.00;;;;16453834;28;20249;-49
2022/10/12 15:36:30;;;;;;;8.67;6.97;;;;;23.60;99365.00;;;;16462280;28;20310;-48
2022/10/12 15:44:32;;;;;;;8.93;7.50;;;;;21.90;99384.00;;;;16452227;28;20264;-48
2022/10/12 15:52:36;;;;;;;11.70;7.80;;;;;21.50;99390.00;;;;16456251;28;20692;-48
2022/10/12 16:00:38;;;;;;;10.63;7.10;;;;;20.00;99385.00;;;;16458970;28;20730;-48
2022/10/12 16:08:42;;;;;;;11.63;7.90;;;;;18.90;99397.00;;;;16473266;28;20704;-48
2022/10/12 16:16:45;;;;;;;10.10;8.20;;;;;18.30;99400.00;;;;16460981;28;20236;-47
2022/10/12 16:24:48;;;;;;;10.43;7.70;;;;;17.70;99392.00;;;;16451505;28;20225;-48
2022/10/12 16:32:51;;;;;;;12.17;7.40;;;;;17.20;99407.00;;;;16456752;28;20235;-48
2022/10/12 16:40:55;;;;;;;32.83;17.50;;;;;17.00;99425.00;;;;16464934;28;20597;-48
2022/10/12 16:48:58;;;;;;;16.07;11.00;;;;;16.50;99439.00;;;;16453060;28;20610;-48
2022/10/12 16:57:01;;;;;;;10.40;9.00;;;;;16.70;99426.00;;;;16454277;28;20700;-48
2022/10/12 17:05:05;;;;;;;25.00;14.47;;;;;16.40;99421.00;;;;16470369;28;20928;-47
2022/10/12 17:13:08;;;;;;;25.40;15.33;;;;;16.00;99427.00;;;;16466969;28;20229;-48
2022/10/12 17:21:11;;;;;;;17.73;12.97;;;;;15.60;99431.00;;;;16468076;28;20225;-47
2022/10/12 17:29:17;;;;;;;17.80;11.70;;;;;15.40;99441.00;;;;16456584;28;20307;-48
2022/10/12 17:37:20;;;;;;;15.93;12.33;;;;;15.50;99437.00;;;;16472213;28;20910;-47
2022/10/12 17:45:24;;;;;;;18.80;13.13;;;;;15.40;99428.00;;;;16468897;28;20283;-47
2022/10/12 17:53:26;;;;;;;18.70;14.17;;;;;15.00;99442.00;;;;16454799;28;20783;-47
2022/10/12 18:01:32;;;;;;;16.00;12.10;;;;;15.00;99435.00;;;;16457492;28;20760;-47
2022/10/12 18:09:34;;;;;;;14.80;12.37;;;;;14.80;99437.00;;;;16483084;28;20755;-48
2022/10/12 18:17:38;;;;;;;18.97;14.23;;;;;14.80;99446.00;;;;16484595;28;20647;-47
2022/10/12 18:25:41;;;;;;;16.73;12.67;;;;;14.40;99452.00;;;;16475542;28;20239;-47
2022/10/12 18:33:45;;;;;;;20.03;14.53;;;;;14.60;99442.00;;;;16485654;28;20362;-47
2022/10/12 18:41:51;;;;;;;15.90;13.07;;;;;14.40;99448.00;;;;16476091;28;20232;-47
2022/10/12 18:49:55;;;;;;;17.07;14.33;;;;;14.30;99452.00;;;;16485835;28;20223;-48
2022/10/12 18:57:57;;;;;;;19.20;13.93;;;;;14.30;99456.00;;;;16482483;28;20752;-47
2022/10/12 19:06:06;;;;;;;20.90;16.03;;;;;14.30;99448.00;;;;16487025;28;20239;-48
2022/10/12 19:14:12;;;;;;;21.13;15.93;;;;;14.30;99451.00;;;;16476837;28;20232;-48
2022/10/12 19:22:16;;;;;;;24.67;17.47;;;;;14.60;99450.00;;;;16471747;28;20718;-47
2022/10/12 19:30:19;;;;;;;18.53;15.50;;;;;14.10;99457.00;;;;16461459;28;20223;-47
2022/10/12 19:38:24;;;;;;;29.33;17.00;;;;;14.10;99453.00;;;;16446456;28;20228;-47
2022/10/12 19:46:26;;;;;;;23.97;17.60;;;;;14.00;99470.00;;;;16468390;28;20379;-47
2022/10/12 19:54:30;;;;;;;31.40;21.47;;;;;14.00;99459.00;;;;16460203;28;20572;-48
2022/10/12 20:02:33;;;;;;;24.17;21.50;;;;;13.70;99452.00;;;;16449425;28;20235;-48
2022/10/12 20:10:38;;;;;;;26.33;20.23;;;;;14.00;99466.00;;;;16445585;28;20231;-48
2022/10/12 20:18:41;;;;;;;58.57;33.63;;;;;14.20;99459.00;;;;16448392;28;20228;-48
2022/10/12 20:26:44;;;;;;;26.53;18.53;;;;;13.60;99477.00;;;;16453258;28;20228;-48
2022/10/12 20:34:51;;;;;;;32.03;20.73;;;;;13.80;99478.00;;;;16480944;28;20232;-47
2022/10/12 20:42:55;;;;;;;22.63;18.47;;;;;13.70;99476.00;;;;16463013;28;20238;-47
2022/10/12 20:50:58;;;;;;;24.50;19.87;;;;;14.20;99467.00;;;;16478361;28;20284;-48
2022/10/12 20:59:02;;;;;;;21.77;19.50;;;;;14.20;99461.00;;;;16485490;28;20701;-48
2022/10/12 21:07:04;;;;;;;26.10;21.37;;;;;15.00;99446.00;;;;16460576;28;20224;-48
2022/10/12 21:15:09;;;;;;;35.10;22.80;;;;;15.20;99445.00;;;;16459110;28;20224;-47
2022/10/12 21:23:12;;;;;;;25.30;22.67;;;;;15.40;99437.00;;;;16451281;28;20252;-48
2022/10/12 21:31:16;;;;;;;26.03;21.80;;;;;15.40;99427.00;;;;16441641;28;20799;-48
2022/10/12 21:39:19;;;;;;;30.20;21.33;;;;;15.30;99425.00;;;;16444531;28;20231;-48
2022/10/12 21:47:23;;;;;;;24.87;20.60;;;;;15.20;99435.00;;;;16452749;28;20231;-48
2022/10/12 21:55:25;;;;;;;24.23;19.77;;;;;15.20;99434.00;;;;16447821;28;20735;-48
2022/10/12 22:03:29;;;;;;;26.40;18.60;;;;;14.30;99439.00;;;;16442629;28;20220;-48
2022/10/12 22:11:33;;;;;;;25.33;19.20;;;;;13.60;99435.00;;;;16441755;28;20207;-47
2022/10/12 22:19:37;;;;;;;31.57;28.10;;;;;14.00;99429.00;;;;16463716;28;20228;-49
2022/10/12 22:27:39;;;;;;;19.27;17.17;;;;;13.10;99432.00;;;;16459684;28;20591;-48
2022/10/12 22:35:52;;;;;;;21.97;17.43;;;;;13.20;99439.00;;;;16466363;28;20852;-48
2022/10/12 22:43:56;;;;;;;20.40;16.33;;;;;12.80;99441.00;;;;16451554;28;20233;-48
2022/10/12 22:51:59;;;;;;;28.30;24.10;;;;;13.20;99425.00;;;;16465815;28;20207;-48
2022/10/12 23:00:02;;;;;;;31.57;20.43;;;;;14.10;99415.00;;;;16456377;28;20858;-48
2022/10/12 23:08:08;;;;;;;36.63;21.97;;;;;14.60;99409.00;;;;16453732;28;20701;-48
2022/10/12 23:16:13;;;;;;;27.47;19.37;;;;;14.70;99399.00;;;;16462317;28;20229;-48
2022/10/12 23:24:17;;;;;;;25.20;20.77;;;;;14.80;99394.00;;;;16460909;28;20692;-48
2022/10/12 23:32:19;;;;;;;29.20;20.70;;;;;14.60;99383.00;;;;16444838;28;20368;-48
2022/10/12 23:40:23;;;;;;;24.30;19.27;;;;;14.70;99391.00;;;;16463883;28;20225;-48
2022/10/12 23:48:26;;;;;;;26.53;21.00;;;;;14.60;99403.00;;;;16461389;28;20884;-48
2022/10/12 23:56:30;;;;;;;26.30;19.67;;;;;14.50;99404.00;;;;16455826;28;20226;-48
